sensor_id;sensor_type;location;lat;lon;timestamp;temperature;humidity
40756;DHT22;26461;45.630;9.418;2024-02-26T00:01:55;9.70;80.70
40756;DHT22;26461;45.630;9.418;2024-02-26T00:05:00;9.60;81.30
40756;DHT22;26461;45.630;9.418;2024-02-26T00:08:05;9.60;81.70
40756;DHT22;26461;45.630;9.418;2024-02-26T00:11:16;9.60;81.80
40756;DHT22;26461;45.630;9.418;2024-02-26T00:14:26;9.60;81.90
40756;DHT22;26461;45.630;9.418;2024-02-26T00:17:36;9.60;82.30
40756;DHT22;26461;45.630;9.418;2024-02-26T00:20:47;9.60;82.60
40756;DHT22;26461;45.630;9.418;2024-02-26T00:23:55;9.60;82.70
40756;DHT22;26461;45.630;9.418;2024-02-26T00:27:06;9.60;82.70
40756;DHT22;26461;45.630;9.418;2024-02-26T00:30:16;9.60;83.00
40756;DHT22;26461;45.630;9.418;2024-02-26T00:33:22;9.50;83.00
40756;DHT22;26461;45.630;9.418;2024-02-26T00:36:28;9.50;83.00
40756;DHT22;26461;45.630;9.418;2024-02-26T00:39:38;9.50;83.30
40756;DHT22;26461;45.630;9.418;2024-02-26T00:42:44;9.50;83.60
40756;DHT22;26461;45.630;9.418;2024-02-26T00:45:55;9.50;83.80
40756;DHT22;26461;45.630;9.418;2024-02-26T00:49:00;9.40;84.10
40756;DHT22;26461;45.630;9.418;2024-02-26T00:52:11;9.40;84.10
40756;DHT22;26461;45.630;9.418;2024-02-26T00:55:16;9.40;85.20
40756;DHT22;26461;45.630;9.418;2024-02-26T00:58:26;9.40;84.60
40756;DHT22;26461;45.630;9.418;2024-02-26T01:01:32;9.40;84.40
40756;DHT22;26461;45.630;9.418;2024-02-26T01:04:42;9.40;84.50
40756;DHT22;26461;45.630;9.418;2024-02-26T01:07:52;9.40;84.60
40756;DHT22;26461;45.630;9.418;2024-02-26T01:11:02;9.40;84.70
40756;DHT22;26461;45.630;9.418;2024-02-26T01:14:12;9.40;84.70
40756;DHT22;26461;45.630;9.418;2024-02-26T01:17:18;9.40;84.20
40756;DHT22;26461;45.630;9.418;2024-02-26T01:20:28;9.40;84.00
40756;DHT22;26461;45.630;9.418;2024-02-26T01:23:34;9.40;84.10
40756;DHT22;26461;45.630;9.418;2024-02-26T01:26:39;9.30;83.90
40756;DHT22;26461;45.630;9.418;2024-02-26T01:29:50;9.40;84.00
40756;DHT22;26461;45.630;9.418;2024-02-26T01:32:55;9.40;84.00
40756;DHT22;26461;45.630;9.418;2024-02-26T01:36:05;9.30;83.80
40756;DHT22;26461;45.630;9.418;2024-02-26T01:39:15;9.30;83.90
40756;DHT22;26461;45.630;9.418;2024-02-26T01:42:26;9.30;84.10
40756;DHT22;26461;45.630;9.418;2024-02-26T01:45:36;9.30;83.90
40756;DHT22;26461;45.630;9.418;2024-02-26T01:48:45;9.20;84.00
40756;DHT22;26461;45.630;9.418;2024-02-26T01:51:52;9.30;83.90
40756;DHT22;26461;45.630;9.418;2024-02-26T01:55:02;9.30;83.60
40756;DHT22;26461;45.630;9.418;2024-02-26T01:58:13;9.30;83.40
40756;DHT22;26461;45.630;9.418;2024-02-26T02:01:22;9.30;83.50
40756;DHT22;26461;45.630;9.418;2024-02-26T02:04:30;9.30;83.30
40756;DHT22;26461;45.630;9.418;2024-02-26T02:07:36;9.30;83.00
40756;DHT22;26461;45.630;9.418;2024-02-26T02:10:42;9.30;82.80
40756;DHT22;26461;45.630;9.418;2024-02-26T02:13:47;9.30;82.30
40756;DHT22;26461;45.630;9.418;2024-02-26T02:16:58;9.30;82.20
40756;DHT22;26461;45.630;9.418;2024-02-26T02:20:14;9.30;82.20
40756;DHT22;26461;45.630;9.418;2024-02-26T02:23:19;9.20;81.90
40756;DHT22;26461;45.630;9.418;2024-02-26T02:26:29;9.30;81.80
40756;DHT22;26461;45.630;9.418;2024-02-26T02:29:40;9.20;81.60
40756;DHT22;26461;45.630;9.418;2024-02-26T02:32:51;9.20;81.20
40756;DHT22;26461;45.630;9.418;2024-02-26T02:36:01;9.20;81.30
40756;DHT22;26461;45.630;9.418;2024-02-26T02:39:06;9.20;81.40
40756;DHT22;26461;45.630;9.418;2024-02-26T02:42:11;9.20;81.50
40756;DHT22;26461;45.630;9.418;2024-02-26T02:45:22;9.20;81.40
40756;DHT22;26461;45.630;9.418;2024-02-26T02:48:32;9.20;81.40
40756;DHT22;26461;45.630;9.418;2024-02-26T02:51:42;9.20;81.40
40756;DHT22;26461;45.630;9.418;2024-02-26T02:54:47;9.20;81.10
40756;DHT22;26461;45.630;9.418;2024-02-26T02:57:53;9.20;81.10
40756;DHT22;26461;45.630;9.418;2024-02-26T03:01:03;9.20;80.60
40756;DHT22;26461;45.630;9.418;2024-02-26T03:04:13;9.20;80.70
40756;DHT22;26461;45.630;9.418;2024-02-26T03:07:19;9.20;80.80
40756;DHT22;26461;45.630;9.418;2024-02-26T03:10:24;9.20;81.30
40756;DHT22;26461;45.630;9.418;2024-02-26T03:13:29;9.20;81.30
40756;DHT22;26461;45.630;9.418;2024-02-26T03:16:39;9.10;81.40
40756;DHT22;26461;45.630;9.418;2024-02-26T03:19:45;9.10;81.70
40756;DHT22;26461;45.630;9.418;2024-02-26T03:22:56;9.10;81.90
40756;DHT22;26461;45.630;9.418;2024-02-26T03:26:06;9.10;81.90
40756;DHT22;26461;45.630;9.418;2024-02-26T03:29:13;9.10;82.00
40756;DHT22;26461;45.630;9.418;2024-02-26T03:32:18;9.10;82.10
40756;DHT22;26461;45.630;9.418;2024-02-26T03:35:28;9.10;82.10
40756;DHT22;26461;45.630;9.418;2024-02-26T03:38:38;9.10;82.00
40756;DHT22;26461;45.630;9.418;2024-02-26T03:41:43;9.00;81.80
40756;DHT22;26461;45.630;9.418;2024-02-26T03:44:53;9.10;81.90
40756;DHT22;26461;45.630;9.418;2024-02-26T03:47:59;9.00;81.90
40756;DHT22;26461;45.630;9.418;2024-02-26T03:51:09;9.10;82.30
40756;DHT22;26461;45.630;9.418;2024-02-26T03:54:15;9.00;82.10
40756;DHT22;26461;45.630;9.418;2024-02-26T03:57:20;9.00;82.50
40756;DHT22;26461;45.630;9.418;2024-02-26T04:00:27;9.00;82.30
40756;DHT22;26461;45.630;9.418;2024-02-26T04:03:35;9.00;82.20
40756;DHT22;26461;45.630;9.418;2024-02-26T04:06:46;9.00;82.30
40756;DHT22;26461;45.630;9.418;2024-02-26T04:09:56;9.00;82.20
40756;DHT22;26461;45.630;9.418;2024-02-26T04:13:07;9.00;82.40
40756;DHT22;26461;45.630;9.418;2024-02-26T04:16:12;9.00;82.50
40756;DHT22;26461;45.630;9.418;2024-02-26T04:19:23;9.00;82.60
40756;DHT22;26461;45.630;9.418;2024-02-26T04:22:28;9.00;82.70
40756;DHT22;26461;45.630;9.418;2024-02-26T04:25:38;9.00;82.80
40756;DHT22;26461;45.630;9.418;2024-02-26T04:28:44;9.00;82.90
40756;DHT22;26461;45.630;9.418;2024-02-26T04:31:49;8.90;82.90
40756;DHT22;26461;45.630;9.418;2024-02-26T04:34:54;8.90;82.90
40756;DHT22;26461;45.630;9.418;2024-02-26T04:38:04;8.90;83.00
40756;DHT22;26461;45.630;9.418;2024-02-26T04:41:15;8.90;83.00
40756;DHT22;26461;45.630;9.418;2024-02-26T04:44:20;8.90;83.20
40756;DHT22;26461;45.630;9.418;2024-02-26T04:47:25;8.90;83.20
40756;DHT22;26461;45.630;9.418;2024-02-26T04:50:30;8.90;83.40
40756;DHT22;26461;45.630;9.418;2024-02-26T04:53:35;8.90;83.40
40756;DHT22;26461;45.630;9.418;2024-02-26T04:56:41;8.90;83.40
40756;DHT22;26461;45.630;9.418;2024-02-26T04:59:51;8.80;83.50
40756;DHT22;26461;45.630;9.418;2024-02-26T05:02:56;8.80;83.70
40756;DHT22;26461;45.630;9.418;2024-02-26T05:06:01;8.80;83.70
40756;DHT22;26461;45.630;9.418;2024-02-26T05:09:07;8.80;83.90
40756;DHT22;26461;45.630;9.418;2024-02-26T05:12:12;8.80;84.20
40756;DHT22;26461;45.630;9.418;2024-02-26T05:15:18;8.80;84.40
40756;DHT22;26461;45.630;9.418;2024-02-26T05:18:23;8.80;84.40
40756;DHT22;26461;45.630;9.418;2024-02-26T05:21:29;8.80;84.50
40756;DHT22;26461;45.630;9.418;2024-02-26T05:24:39;8.80;84.50
40756;DHT22;26461;45.630;9.418;2024-02-26T05:27:49;8.80;84.60
40756;DHT22;26461;45.630;9.418;2024-02-26T05:30:54;8.80;84.60
40756;DHT22;26461;45.630;9.418;2024-02-26T05:34:00;8.70;84.70
40756;DHT22;26461;45.630;9.418;2024-02-26T05:37:05;8.70;85.00
40756;DHT22;26461;45.630;9.418;2024-02-26T05:40:12;8.70;85.10
40756;DHT22;26461;45.630;9.418;2024-02-26T05:43:23;8.70;85.10
40756;DHT22;26461;45.630;9.418;2024-02-26T05:46:28;8.70;85.40
40756;DHT22;26461;45.630;9.418;2024-02-26T05:49:38;8.70;85.50
40756;DHT22;26461;45.630;9.418;2024-02-26T05:52:44;8.70;85.50
40756;DHT22;26461;45.630;9.418;2024-02-26T05:55:54;8.60;85.60
40756;DHT22;26461;45.630;9.418;2024-02-26T05:59:04;8.60;85.80
40756;DHT22;26461;45.630;9.418;2024-02-26T06:02:15;8.60;86.00
40756;DHT22;26461;45.630;9.418;2024-02-26T06:05:20;8.60;86.20
40756;DHT22;26461;45.630;9.418;2024-02-26T06:08:25;8.60;86.50
40756;DHT22;26461;45.630;9.418;2024-02-26T06:11:31;8.60;86.50
40756;DHT22;26461;45.630;9.418;2024-02-26T06:14:36;8.60;86.60
40756;DHT22;26461;45.630;9.418;2024-02-26T06:17:46;8.50;86.90
40756;DHT22;26461;45.630;9.418;2024-02-26T06:20:52;8.50;87.00
40756;DHT22;26461;45.630;9.418;2024-02-26T06:23:57;8.50;87.00
40756;DHT22;26461;45.630;9.418;2024-02-26T06:27:09;8.50;86.80
40756;DHT22;26461;45.630;9.418;2024-02-26T06:30:14;8.50;86.70
40756;DHT22;26461;45.630;9.418;2024-02-26T06:33:20;8.50;86.70
40756;DHT22;26461;45.630;9.418;2024-02-26T06:36:29;8.50;86.90
40756;DHT22;26461;45.630;9.418;2024-02-26T06:39:42;8.40;87.30
40756;DHT22;26461;45.630;9.418;2024-02-26T06:42:47;8.40;87.50
40756;DHT22;26461;45.630;9.418;2024-02-26T06:45:58;8.30;87.70
40756;DHT22;26461;45.630;9.418;2024-02-26T06:49:03;8.30;87.90
40756;DHT22;26461;45.630;9.418;2024-02-26T06:52:09;8.40;88.10
40756;DHT22;26461;45.630;9.418;2024-02-26T06:55:19;8.40;87.90
40756;DHT22;26461;45.630;9.418;2024-02-26T06:58:24;8.40;88.20
40756;DHT22;26461;45.630;9.418;2024-02-26T07:01:30;8.40;88.10
40756;DHT22;26461;45.630;9.418;2024-02-26T07:04:35;8.40;87.90
40756;DHT22;26461;45.630;9.418;2024-02-26T07:07:47;8.40;87.90
40756;DHT22;26461;45.630;9.418;2024-02-26T07:10:52;8.40;87.70
40756;DHT22;26461;45.630;9.418;2024-02-26T07:13:58;8.40;87.90
40756;DHT22;26461;45.630;9.418;2024-02-26T07:17:03;8.40;87.90
40756;DHT22;26461;45.630;9.418;2024-02-26T07:20:13;8.40;88.10
40756;DHT22;26461;45.630;9.418;2024-02-26T07:23:24;8.40;88.30
40756;DHT22;26461;45.630;9.418;2024-02-26T07:26:30;8.40;88.50
40756;DHT22;26461;45.630;9.418;2024-02-26T07:29:41;8.90;89.10
40756;DHT22;26461;45.630;9.418;2024-02-26T07:32:51;8.40;89.10
40756;DHT22;26461;45.630;9.418;2024-02-26T07:35:57;8.40;89.20
40756;DHT22;26461;45.630;9.418;2024-02-26T07:39:07;8.40;89.50
40756;DHT22;26461;45.630;9.418;2024-02-26T07:42:17;8.40;89.60
40756;DHT22;26461;45.630;9.418;2024-02-26T07:45:22;8.40;89.50
40756;DHT22;26461;45.630;9.418;2024-02-26T07:48:33;8.40;89.30
40756;DHT22;26461;45.630;9.418;2024-02-26T07:51:38;8.40;89.40
40756;DHT22;26461;45.630;9.418;2024-02-26T07:54:48;8.40;89.50
40756;DHT22;26461;45.630;9.418;2024-02-26T07:57:53;8.40;89.40
40756;DHT22;26461;45.630;9.418;2024-02-26T08:00:59;8.30;89.50
40756;DHT22;26461;45.630;9.418;2024-02-26T08:04:09;8.40;89.60
40756;DHT22;26461;45.630;9.418;2024-02-26T08:07:19;8.40;89.60
40756;DHT22;26461;45.630;9.418;2024-02-26T08:10:25;8.40;89.50
40756;DHT22;26461;45.630;9.418;2024-02-26T08:13:35;8.40;89.30
40756;DHT22;26461;45.630;9.418;2024-02-26T08:16:45;8.40;89.10
40756;DHT22;26461;45.630;9.418;2024-02-26T08:19:50;8.40;88.90
40756;DHT22;26461;45.630;9.418;2024-02-26T08:23:01;8.40;88.90
40756;DHT22;26461;45.630;9.418;2024-02-26T08:26:06;8.40;88.90
40756;DHT22;26461;45.630;9.418;2024-02-26T08:29:17;8.40;88.50
40756;DHT22;26461;45.630;9.418;2024-02-26T08:32:22;8.40;88.40
40756;DHT22;26461;45.630;9.418;2024-02-26T08:35:27;8.40;88.70
40756;DHT22;26461;45.630;9.418;2024-02-26T08:38:37;8.40;88.80
40756;DHT22;26461;45.630;9.418;2024-02-26T08:41:43;8.40;88.80
40756;DHT22;26461;45.630;9.418;2024-02-26T08:44:54;8.40;88.70
40756;DHT22;26461;45.630;9.418;2024-02-26T08:48:05;8.40;88.70
40756;DHT22;26461;45.630;9.418;2024-02-26T08:51:10;8.40;88.60
40756;DHT22;26461;45.630;9.418;2024-02-26T08:54:22;8.40;88.50
40756;DHT22;26461;45.630;9.418;2024-02-26T08:57:32;8.40;88.50
40756;DHT22;26461;45.630;9.418;2024-02-26T09:00:43;8.40;88.20
40756;DHT22;26461;45.630;9.418;2024-02-26T09:03:49;8.50;88.10
40756;DHT22;26461;45.630;9.418;2024-02-26T09:06:55;8.40;88.00
40756;DHT22;26461;45.630;9.418;2024-02-26T09:10:00;8.50;88.10
40756;DHT22;26461;45.630;9.418;2024-02-26T09:13:10;8.50;88.40
40756;DHT22;26461;45.630;9.418;2024-02-26T09:16:16;8.50;88.60
40756;DHT22;26461;45.630;9.418;2024-02-26T09:19:26;8.50;88.50
40756;DHT22;26461;45.630;9.418;2024-02-26T09:22:34;8.50;88.30
40756;DHT22;26461;45.630;9.418;2024-02-26T09:25:42;8.50;88.20
40756;DHT22;26461;45.630;9.418;2024-02-26T09:28:48;8.50;88.20
40756;DHT22;26461;45.630;9.418;2024-02-26T09:31:54;8.50;88.40
40756;DHT22;26461;45.630;9.418;2024-02-26T09:35:00;8.50;88.30
40756;DHT22;26461;45.630;9.418;2024-02-26T09:38:10;8.50;88.30
40756;DHT22;26461;45.630;9.418;2024-02-26T09:41:16;8.50;88.20
40756;DHT22;26461;45.630;9.418;2024-02-26T09:44:22;8.50;88.40
40756;DHT22;26461;45.630;9.418;2024-02-26T09:47:31;8.60;88.80
40756;DHT22;26461;45.630;9.418;2024-02-26T09:50:37;8.60;89.00
40756;DHT22;26461;45.630;9.418;2024-02-26T09:53:44;8.50;88.70
40756;DHT22;26461;45.630;9.418;2024-02-26T09:57:02;8.60;88.90
40756;DHT22;26461;45.630;9.418;2024-02-26T10:00:18;8.60;89.00
40756;DHT22;26461;45.630;9.418;2024-02-26T10:03:38;8.50;88.80
40756;DHT22;26461;45.630;9.418;2024-02-26T10:06:50;8.60;89.00
40756;DHT22;26461;45.630;9.418;2024-02-26T10:09:56;8.60;89.10
40756;DHT22;26461;45.630;9.418;2024-02-26T10:13:07;8.60;89.20
40756;DHT22;26461;45.630;9.418;2024-02-26T10:16:20;8.60;89.50
40756;DHT22;26461;45.630;9.418;2024-02-26T10:19:30;8.60;90.00
40756;DHT22;26461;45.630;9.418;2024-02-26T10:22:41;8.60;90.20
40756;DHT22;26461;45.630;9.418;2024-02-26T10:25:55;8.60;90.30
40756;DHT22;26461;45.630;9.418;2024-02-26T10:29:01;8.70;90.30
40756;DHT22;26461;45.630;9.418;2024-02-26T10:32:11;8.70;90.30
40756;DHT22;26461;45.630;9.418;2024-02-26T10:35:19;8.70;90.40
40756;DHT22;26461;45.630;9.418;2024-02-26T10:38:30;8.70;90.60
40756;DHT22;26461;45.630;9.418;2024-02-26T10:41:35;8.70;90.70
40756;DHT22;26461;45.630;9.418;2024-02-26T10:44:46;8.70;90.70
40756;DHT22;26461;45.630;9.418;2024-02-26T10:47:53;8.70;90.80
40756;DHT22;26461;45.630;9.418;2024-02-26T10:50:59;8.70;90.90
40756;DHT22;26461;45.630;9.418;2024-02-26T10:54:15;8.70;91.30
40756;DHT22;26461;45.630;9.418;2024-02-26T10:57:20;8.70;90.90
40756;DHT22;26461;45.630;9.418;2024-02-26T11:00:31;8.70;90.80
40756;DHT22;26461;45.630;9.418;2024-02-26T11:03:37;8.70;90.80
40756;DHT22;26461;45.630;9.418;2024-02-26T11:06:49;8.70;90.80
40756;DHT22;26461;45.630;9.418;2024-02-26T11:10:00;8.70;90.90
40756;DHT22;26461;45.630;9.418;2024-02-26T11:13:17;8.70;91.00
40756;DHT22;26461;45.630;9.418;2024-02-26T11:16:23;8.60;91.00
40756;DHT22;26461;45.630;9.418;2024-02-26T11:19:34;8.70;91.10
40756;DHT22;26461;45.630;9.418;2024-02-26T11:22:40;8.60;90.90
40756;DHT22;26461;45.630;9.418;2024-02-26T11:25:46;8.70;91.00
40756;DHT22;26461;45.630;9.418;2024-02-26T11:28:53;8.70;91.00
40756;DHT22;26461;45.630;9.418;2024-02-26T11:32:00;8.70;90.90
40756;DHT22;26461;45.630;9.418;2024-02-26T11:35:06;8.60;90.80
40756;DHT22;26461;45.630;9.418;2024-02-26T11:38:24;8.60;90.80
40756;DHT22;26461;45.630;9.418;2024-02-26T11:41:36;8.60;90.80
40756;DHT22;26461;45.630;9.418;2024-02-26T11:44:47;8.70;90.90
40756;DHT22;26461;45.630;9.418;2024-02-26T11:48:01;8.60;90.80
40756;DHT22;26461;45.630;9.418;2024-02-26T11:51:11;8.60;90.80
40756;DHT22;26461;45.630;9.418;2024-02-26T11:57:54;8.60;91.00
40756;DHT22;26461;45.630;9.418;2024-02-26T12:00:59;8.60;91.00
40756;DHT22;26461;45.630;9.418;2024-02-26T12:04:27;8.60;91.00
40756;DHT22;26461;45.630;9.418;2024-02-26T12:07:31;8.60;91.10
40756;DHT22;26461;45.630;9.418;2024-02-26T12:10:38;8.50;90.90
40756;DHT22;26461;45.630;9.418;2024-02-26T12:13:47;8.50;90.90
40756;DHT22;26461;45.630;9.418;2024-02-26T12:16:59;8.50;90.90
40756;DHT22;26461;45.630;9.418;2024-02-26T12:20:11;8.50;90.90
40756;DHT22;26461;45.630;9.418;2024-02-26T12:23:16;8.50;90.90
40756;DHT22;26461;45.630;9.418;2024-02-26T12:26:26;8.50;90.70
40756;DHT22;26461;45.630;9.418;2024-02-26T12:29:36;8.40;91.00
40756;DHT22;26461;45.630;9.418;2024-02-26T12:32:41;8.40;91.20
40756;DHT22;26461;45.630;9.418;2024-02-26T12:35:47;8.40;91.10
40756;DHT22;26461;45.630;9.418;2024-02-26T12:38:53;8.40;91.30
40756;DHT22;26461;45.630;9.418;2024-02-26T12:42:03;8.40;91.00
40756;DHT22;26461;45.630;9.418;2024-02-26T12:45:10;8.40;90.40
40756;DHT22;26461;45.630;9.418;2024-02-26T12:48:21;8.30;90.10
40756;DHT22;26461;45.630;9.418;2024-02-26T12:51:33;8.30;90.00
40756;DHT22;26461;45.630;9.418;2024-02-26T12:54:39;8.30;90.20
40756;DHT22;26461;45.630;9.418;2024-02-26T12:57:51;8.30;90.20
40756;DHT22;26461;45.630;9.418;2024-02-26T13:00:57;8.30;90.00
40756;DHT22;26461;45.630;9.418;2024-02-26T13:04:03;8.30;89.90
40756;DHT22;26461;45.630;9.418;2024-02-26T13:07:16;8.30;89.90
40756;DHT22;26461;45.630;9.418;2024-02-26T13:10:22;8.30;89.30
40756;DHT22;26461;45.630;9.418;2024-02-26T13:13:32;8.30;89.50
40756;DHT22;26461;45.630;9.418;2024-02-26T13:16:37;8.30;89.30
40756;DHT22;26461;45.630;9.418;2024-02-26T13:19:50;8.20;88.70
40756;DHT22;26461;45.630;9.418;2024-02-26T13:23:04;8.20;88.50
40756;DHT22;26461;45.630;9.418;2024-02-26T13:26:12;8.20;88.70
40756;DHT22;26461;45.630;9.418;2024-02-26T13:29:23;8.20;89.00
40756;DHT22;26461;45.630;9.418;2024-02-26T13:32:35;8.20;89.20
40756;DHT22;26461;45.630;9.418;2024-02-26T13:35:40;8.20;89.40
40756;DHT22;26461;45.630;9.418;2024-02-26T13:38:53;8.20;89.90
40756;DHT22;26461;45.630;9.418;2024-02-26T13:41:59;8.30;90.00
40756;DHT22;26461;45.630;9.418;2024-02-26T13:45:05;8.30;90.20
40756;DHT22;26461;45.630;9.418;2024-02-26T13:48:18;8.30;90.20
40756;DHT22;26461;45.630;9.418;2024-02-26T13:51:24;8.30;90.20
40756;DHT22;26461;45.630;9.418;2024-02-26T13:54:35;8.30;90.30
40756;DHT22;26461;45.630;9.418;2024-02-26T13:57:45;8.30;90.40
40756;DHT22;26461;45.630;9.418;2024-02-26T14:00:55;8.30;90.50
40756;DHT22;26461;45.630;9.418;2024-02-26T14:04:06;8.30;90.70
40756;DHT22;26461;45.630;9.418;2024-02-26T14:07:19;8.40;90.70
40756;DHT22;26461;45.630;9.418;2024-02-26T14:10:25;8.40;90.80
40756;DHT22;26461;45.630;9.418;2024-02-26T14:13:30;8.30;91.10
40756;DHT22;26461;45.630;9.418;2024-02-26T14:16:36;8.40;90.80
40756;DHT22;26461;45.630;9.418;2024-02-26T14:19:47;8.40;90.80
40756;DHT22;26461;45.630;9.418;2024-02-26T14:22:58;8.40;90.90
40756;DHT22;26461;45.630;9.418;2024-02-26T14:26:08;8.40;91.00
40756;DHT22;26461;45.630;9.418;2024-02-26T14:29:19;8.40;91.10
40756;DHT22;26461;45.630;9.418;2024-02-26T14:32:29;8.40;90.90
40756;DHT22;26461;45.630;9.418;2024-02-26T14:35:44;8.40;90.50
40756;DHT22;26461;45.630;9.418;2024-02-26T14:38:55;8.40;90.30
40756;DHT22;26461;45.630;9.418;2024-02-26T14:42:00;8.40;90.30
40756;DHT22;26461;45.630;9.418;2024-02-26T14:45:11;8.40;90.40
40756;DHT22;26461;45.630;9.418;2024-02-26T14:48:16;8.40;90.40
40756;DHT22;26461;45.630;9.418;2024-02-26T14:51:26;8.50;90.60
40756;DHT22;26461;45.630;9.418;2024-02-26T14:54:32;8.40;90.50
40756;DHT22;26461;45.630;9.418;2024-02-26T14:57:42;8.50;90.40
40756;DHT22;26461;45.630;9.418;2024-02-26T15:00:47;8.40;90.10
40756;DHT22;26461;45.630;9.418;2024-02-26T15:03:57;8.40;90.00
40756;DHT22;26461;45.630;9.418;2024-02-26T15:07:03;8.40;89.50
40756;DHT22;26461;45.630;9.418;2024-02-26T15:10:09;8.40;89.20
40756;DHT22;26461;45.630;9.418;2024-02-26T15:13:19;8.30;89.20
40756;DHT22;26461;45.630;9.418;2024-02-26T15:16:24;8.30;89.10
40756;DHT22;26461;45.630;9.418;2024-02-26T15:19:34;8.20;89.10
40756;DHT22;26461;45.630;9.418;2024-02-26T15:22:45;8.20;88.40
40756;DHT22;26461;45.630;9.418;2024-02-26T15:25:57;8.20;88.00
40756;DHT22;26461;45.630;9.418;2024-02-26T15:29:07;8.20;88.10
40756;DHT22;26461;45.630;9.418;2024-02-26T15:32:18;8.10;87.90
40756;DHT22;26461;45.630;9.418;2024-02-26T15:35:29;8.10;88.10
40756;DHT22;26461;45.630;9.418;2024-02-26T15:38:34;8.10;88.30
40756;DHT22;26461;45.630;9.418;2024-02-26T15:41:39;8.00;88.10
40756;DHT22;26461;45.630;9.418;2024-02-26T15:44:50;8.00;88.10
40756;DHT22;26461;45.630;9.418;2024-02-26T15:47:55;8.00;88.40
40756;DHT22;26461;45.630;9.418;2024-02-26T15:51:06;8.00;89.00
40756;DHT22;26461;45.630;9.418;2024-02-26T15:54:11;8.00;89.30
40756;DHT22;26461;45.630;9.418;2024-02-26T15:57:16;8.00;89.40
40756;DHT22;26461;45.630;9.418;2024-02-26T16:00:25;7.90;89.40
40756;DHT22;26461;45.630;9.418;2024-02-26T16:03:30;7.90;89.40
40756;DHT22;26461;45.630;9.418;2024-02-26T16:06:41;7.90;89.30
40756;DHT22;26461;45.630;9.418;2024-02-26T16:09:53;7.90;89.60
40756;DHT22;26461;45.630;9.418;2024-02-26T16:13:04;7.80;90.00
40756;DHT22;26461;45.630;9.418;2024-02-26T16:16:19;7.90;90.20
40756;DHT22;26461;45.630;9.418;2024-02-26T16:19:25;7.90;90.30
40756;DHT22;26461;45.630;9.418;2024-02-26T16:22:35;7.90;90.30
40756;DHT22;26461;45.630;9.418;2024-02-26T16:25:46;7.90;90.20
40756;DHT22;26461;45.630;9.418;2024-02-26T16:28:51;7.80;90.10
40756;DHT22;26461;45.630;9.418;2024-02-26T16:31:56;7.80;90.20
40756;DHT22;26461;45.630;9.418;2024-02-26T16:35:02;7.80;90.20
40756;DHT22;26461;45.630;9.418;2024-02-26T16:38:08;7.80;90.10
40756;DHT22;26461;45.630;9.418;2024-02-26T16:41:13;7.80;90.00
40756;DHT22;26461;45.630;9.418;2024-02-26T16:44:19;7.80;90.00
40756;DHT22;26461;45.630;9.418;2024-02-26T16:47:24;7.80;90.00
40756;DHT22;26461;45.630;9.418;2024-02-26T16:50:30;7.80;89.60
40756;DHT22;26461;45.630;9.418;2024-02-26T16:53:40;7.80;89.50
40756;DHT22;26461;45.630;9.418;2024-02-26T16:56:46;7.70;89.50
40756;DHT22;26461;45.630;9.418;2024-02-26T16:59:56;7.80;89.70
40756;DHT22;26461;45.630;9.418;2024-02-26T17:03:07;7.80;89.40
40756;DHT22;26461;45.630;9.418;2024-02-26T17:06:12;7.80;89.50
40756;DHT22;26461;45.630;9.418;2024-02-26T17:09:17;7.70;89.50
40756;DHT22;26461;45.630;9.418;2024-02-26T17:12:28;7.70;89.80
40756;DHT22;26461;45.630;9.418;2024-02-26T17:15:39;7.70;90.20
40756;DHT22;26461;45.630;9.418;2024-02-26T17:18:50;7.60;89.80
40756;DHT22;26461;45.630;9.418;2024-02-26T17:21:55;7.80;89.80
40756;DHT22;26461;45.630;9.418;2024-02-26T17:25:05;7.70;89.40
40756;DHT22;26461;45.630;9.418;2024-02-26T17:28:11;7.60;89.30
40756;DHT22;26461;45.630;9.418;2024-02-26T17:31:23;7.60;89.20
40756;DHT22;26461;45.630;9.418;2024-02-26T17:34:35;7.60;89.40
40756;DHT22;26461;45.630;9.418;2024-02-26T17:37:45;7.60;89.50
40756;DHT22;26461;45.630;9.418;2024-02-26T17:40:55;7.60;89.60
40756;DHT22;26461;45.630;9.418;2024-02-26T17:44:05;7.60;89.70
40756;DHT22;26461;45.630;9.418;2024-02-26T17:47:15;7.50;90.00
40756;DHT22;26461;45.630;9.418;2024-02-26T17:50:25;7.60;90.00
40756;DHT22;26461;45.630;9.418;2024-02-26T17:53:31;7.60;89.80
40756;DHT22;26461;45.630;9.418;2024-02-26T17:56:42;7.60;90.00
40756;DHT22;26461;45.630;9.418;2024-02-26T17:59:52;7.50;90.00
40756;DHT22;26461;45.630;9.418;2024-02-26T18:03:03;7.50;90.20
40756;DHT22;26461;45.630;9.418;2024-02-26T18:06:09;7.50;90.20
40756;DHT22;26461;45.630;9.418;2024-02-26T18:09:19;7.50;90.20
40756;DHT22;26461;45.630;9.418;2024-02-26T18:12:29;7.50;90.20
40756;DHT22;26461;45.630;9.418;2024-02-26T18:15:35;7.50;90.20
40756;DHT22;26461;45.630;9.418;2024-02-26T18:18:40;7.50;90.10
40756;DHT22;26461;45.630;9.418;2024-02-26T18:21:56;7.50;90.10
40756;DHT22;26461;45.630;9.418;2024-02-26T18:25:09;7.40;90.10
40756;DHT22;26461;45.630;9.418;2024-02-26T18:28:19;7.40;90.30
40756;DHT22;26461;45.630;9.418;2024-02-26T18:31:29;7.40;90.40
40756;DHT22;26461;45.630;9.418;2024-02-26T18:34:39;7.50;90.30
40756;DHT22;26461;45.630;9.418;2024-02-26T18:37:49;7.50;90.20
40756;DHT22;26461;45.630;9.418;2024-02-26T18:41:00;7.40;90.30
40756;DHT22;26461;45.630;9.418;2024-02-26T18:44:11;7.40;90.40
40756;DHT22;26461;45.630;9.418;2024-02-26T18:47:16;7.50;90.10
40756;DHT22;26461;45.630;9.418;2024-02-26T18:50:23;7.50;90.00
40756;DHT22;26461;45.630;9.418;2024-02-26T18:53:34;7.40;90.00
40756;DHT22;26461;45.630;9.418;2024-02-26T18:56:44;7.40;90.10
40756;DHT22;26461;45.630;9.418;2024-02-26T18:59:54;7.40;90.20
40756;DHT22;26461;45.630;9.418;2024-02-26T19:03:05;7.40;90.20
40756;DHT22;26461;45.630;9.418;2024-02-26T19:06:17;7.40;90.20
40756;DHT22;26461;45.630;9.418;2024-02-26T19:09:27;7.40;90.30
40756;DHT22;26461;45.630;9.418;2024-02-26T19:12:37;7.40;90.30
40756;DHT22;26461;45.630;9.418;2024-02-26T19:15:46;7.40;90.40
40756;DHT22;26461;45.630;9.418;2024-02-26T19:18:57;7.40;90.30
40756;DHT22;26461;45.630;9.418;2024-02-26T19:22:08;7.40;90.50
40756;DHT22;26461;45.630;9.418;2024-02-26T19:25:19;7.40;90.60
40756;DHT22;26461;45.630;9.418;2024-02-26T19:28:29;7.40;90.70
40756;DHT22;26461;45.630;9.418;2024-02-26T19:31:35;7.40;90.80
40756;DHT22;26461;45.630;9.418;2024-02-26T19:34:46;7.40;90.80
40756;DHT22;26461;45.630;9.418;2024-02-26T19:37:56;7.40;90.80
40756;DHT22;26461;45.630;9.418;2024-02-26T19:41:07;7.40;90.90
40756;DHT22;26461;45.630;9.418;2024-02-26T19:44:17;7.40;91.00
40756;DHT22;26461;45.630;9.418;2024-02-26T19:47:27;7.40;91.10
40756;DHT22;26461;45.630;9.418;2024-02-26T19:50:38;7.50;91.20
40756;DHT22;26461;45.630;9.418;2024-02-26T19:53:45;7.50;91.10
40756;DHT22;26461;45.630;9.418;2024-02-26T19:56:56;7.50;90.80
40756;DHT22;26461;45.630;9.418;2024-02-26T20:00:06;7.50;90.70
40756;DHT22;26461;45.630;9.418;2024-02-26T20:03:18;7.40;90.70
40756;DHT22;26461;45.630;9.418;2024-02-26T20:06:28;7.40;90.80
40756;DHT22;26461;45.630;9.418;2024-02-26T20:09:39;7.40;90.80
40756;DHT22;26461;45.630;9.418;2024-02-26T20:12:50;7.50;90.70